Time;durP1;ratioP1;P1;durP2;ratioP2;P2;SDS_P1;SDS_P2;PMS_P1;PMS_P2;Temp;Humidity;BMP_temperature;BMP_pressure;BME280_temperature;BME280_humidity;BME280_pressure;Samples;Min_cycle;Max_cycle;Signal;HPM_P1;HPM_P2
2023/10/11 00:01:27;;;;;;;6.55;5.95;;;;;;;;;;5085876;28;20083;-75
2023/10/11 00:03:52;;;;;;;10.50;8.35;;;;;;;;;;5092142;28;20027;-72
2023/10/11 00:06:17;;;;;;;8.48;7.50;;;;;;;;;;5093156;28;20031;-74
2023/10/11 00:08:43;;;;;;;8.75;7.68;;;;;;;;;;5082464;28;20050;-73
2023/10/11 00:11:09;;;;;;;8.18;7.38;;;;;;;;;;5094748;28;20461;-71
2023/10/11 00:13:35;;;;;;;8.63;7.50;;;;;;;;;;5094248;28;20416;-71
2023/10/11 00:16:07;;;;;;;8.73;7.15;;;;;;;;;;5092969;28;20028;-72
2023/10/11 00:18:34;;;;;;;10.55;7.80;;;;;;;;;;5092693;28;20469;-75
2023/10/11 00:21:02;;;;;;;8.35;7.55;;;;;;;;;;5094378;28;20489;-73
2023/10/11 00:23:28;;;;;;;11.23;7.88;;;;;;;;;;5093928;28;20053;-72
2023/10/11 00:26:00;;;;;;;8.07;7.22;;;;;;;;;;5094515;28;20430;-72
2023/10/11 00:28:26;;;;;;;9.40;6.78;;;;;;;;;;5092869;28;20358;-72
2023/10/11 00:30:52;;;;;;;8.05;6.63;;;;;;;;;;5092734;28;20027;-71
2023/10/11 00:33:17;;;;;;;9.60;7.53;;;;;;;;;;5095304;28;20027;-74
2023/10/11 00:35:49;;;;;;;8.43;7.50;;;;;;;;;;5093415;28;20043;-73
2023/10/11 00:38:18;;;;;;;8.55;7.63;;;;;;;;;;5093697;28;20023;-76
2023/10/11 00:43:34;;;;;;;8.82;7.30;;;;;;;;;;5097645;28;20049;-74
2023/10/11 00:46:00;;;;;;;8.25;7.53;;;;;;;;;;5097832;28;20036;-75
2023/10/11 00:48:26;;;;;;;7.72;6.97;;;;;;;;;;5096482;28;20028;-72
2023/10/11 00:50:53;;;;;;;10.30;8.05;;;;;;;;;;5097866;28;20027;-72
2023/10/11 00:53:18;;;;;;;9.98;8.73;;;;;;;;;;5096427;28;20020;-74
2023/10/11 00:55:45;;;;;;;9.80;8.68;;;;;;;;;;5092544;28;20729;-72
2023/10/11 00:58:15;;;;;;;9.20;8.30;;;;;;;;;;5092984;27;20036;-71
2023/10/11 01:00:41;;;;;;;10.15;8.68;;;;;;;;;;5096620;28;20081;-75
2023/10/11 01:03:08;;;;;;;9.90;8.90;;;;;;;;;;5093393;28;20401;-72
2023/10/11 01:05:35;;;;;;;10.23;9.23;;;;;;;;;;5096063;28;20432;-72
2023/10/11 01:08:00;;;;;;;9.45;8.48;;;;;;;;;;5094727;28;20343;-75
2023/10/11 01:10:29;;;;;;;9.93;7.85;;;;;;;;;;5098254;28;20043;-72
2023/10/11 01:12:54;;;;;;;9.57;8.57;;;;;;;;;;5096228;28;20024;-73
2023/10/11 01:15:23;;;;;;;9.13;8.32;;;;;;;;;;5098647;28;20027;-72
2023/10/11 01:17:48;;;;;;;9.82;8.93;;;;;;;;;;5096099;28;20027;-73
2023/10/11 01:20:13;;;;;;;10.27;9.38;;;;;;;;;;5097565;28;20503;-71
2023/10/11 01:22:42;;;;;;;9.35;8.43;;;;;;;;;;5088786;28;20036;-72
2023/10/11 01:25:08;;;;;;;9.68;8.88;;;;;;;;;;5084271;28;20016;-73
2023/10/11 01:27:36;;;;;;;9.27;8.55;;;;;;;;;;5089858;28;20020;-71
2023/10/11 01:30:03;;;;;;;9.05;8.18;;;;;;;;;;5095733;28;20438;-71
2023/10/11 01:32:29;;;;;;;8.85;8.05;;;;;;;;;;5096387;28;20062;-71
2023/10/11 01:34:54;;;;;;;9.23;7.70;;;;;;;;;;5090262;28;20068;-73
2023/10/11 01:37:19;;;;;;;9.77;6.78;;;;;;;;;;5095387;28;20035;-72
2023/10/11 01:39:45;;;;;;;8.40;7.60;;;;;;;;;;5097268;28;20020;-71
2023/10/11 01:42:10;;;;;;;8.55;7.70;;;;;;;;;;5096833;27;20122;-74
2023/10/11 01:44:38;;;;;;;10.48;9.40;;;;;;;;;;5097466;28;20036;-72
2023/10/11 01:47:03;;;;;;;11.60;10.32;;;;;;;;;;5098746;28;20024;-72
2023/10/11 01:49:29;;;;;;;10.35;9.35;;;;;;;;;;5097078;28;20039;-72
2023/10/11 01:51:54;;;;;;;9.98;9.07;;;;;;;;;;5097406;28;20046;-73
2023/10/11 01:54:22;;;;;;;10.38;9.38;;;;;;;;;;5097822;28;20034;-72
2023/10/11 01:56:48;;;;;;;9.38;8.50;;;;;;;;;;5092759;28;20390;-74
2023/10/11 01:59:14;;;;;;;10.38;8.55;;;;;;;;;;5097785;28;20027;-71
2023/10/11 02:01:39;;;;;;;9.73;8.93;;;;;;;;;;5096813;28;20074;-72
2023/10/11 02:04:28;;;;;;;9.57;8.77;;;;;;;;;;5093934;28;20452;-72
2023/10/11 02:06:51;;;;;;;8.13;7.43;;;;;;;;;;5097118;28;20040;-72
2023/10/11 02:09:20;;;;;;;8.77;7.97;;;;;;;;;;5096947;27;20082;-72
2023/10/11 02:11:45;;;;;;;7.80;7.07;;;;;;;;;;5091982;28;20039;-75
2023/10/11 02:14:13;;;;;;;7.60;6.80;;;;;;;;;;5096175;28;20024;-75
2023/10/11 02:16:39;;;;;;;8.85;6.78;;;;;;;;;;5099728;28;20434;-72
2023/10/11 02:19:05;;;;;;;6.88;6.18;;;;;;;;;;5092988;28;20069;-72
2023/10/11 02:21:30;;;;;;;6.57;5.47;;;;;;;;;;5088006;28;20418;-74
2023/10/11 02:23:57;;;;;;;8.70;5.57;;;;;;;;;;5096130;28;20035;-74
2023/10/11 02:26:31;;;;;;;9.65;5.03;;;;;;;;;;5097023;28;20036;-72
2023/10/11 02:29:16;;;;;;;9.73;6.07;;;;;;;;;;5092527;28;20012;-72
2023/10/11 02:31:41;;;;;;;8.23;5.28;;;;;;;;;;5096732;28;20031;-73
2023/10/11 02:34:12;;;;;;;10.02;5.20;;;;;;;;;;5095823;28;20474;-72
2023/10/11 02:36:38;;;;;;;7.35;4.72;;;;;;;;;;5093363;28;20023;-74
2023/10/11 02:39:06;;;;;;;8.73;4.72;;;;;;;;;;5083917;28;20096;-73
2023/10/11 02:41:32;;;;;;;6.88;4.28;;;;;;;;;;5082711;28;20043;-76
2023/10/11 02:43:57;;;;;;;6.05;4.43;;;;;;;;;;5081952;28;20062;-72
2023/10/11 02:46:23;;;;;;;8.18;4.05;;;;;;;;;;5091642;28;20028;-74
2023/10/11 02:48:49;;;;;;;4.95;3.80;;;;;;;;;;5098268;28;20023;-72
2023/10/11 02:51:24;;;;;;;9.07;4.38;;;;;;;;;;5094066;28;20486;-73
2023/10/11 02:53:50;;;;;;;6.80;4.35;;;;;;;;;;5095920;28;20038;-73
2023/10/11 02:56:15;;;;;;;6.45;4.75;;;;;;;;;;5095449;28;20386;-72
2023/10/11 02:58:41;;;;;;;5.30;4.22;;;;;;;;;;5092046;28;20338;-72
2023/10/11 03:01:20;;;;;;;5.18;3.80;;;;;;;;;;5093419;28;20410;-72
2023/10/11 03:03:47;;;;;;;8.50;4.53;;;;;;;;;;5095452;28;20024;-74
2023/10/11 03:06:13;;;;;;;8.32;4.28;;;;;;;;;;5094507;28;20023;-72
2023/10/11 03:08:40;;;;;;;7.13;4.30;;;;;;;;;;5086141;28;20081;-75
2023/10/11 03:11:08;;;;;;;10.73;5.53;;;;;;;;;;5093350;28;20045;-72
2023/10/11 03:13:41;;;;;;;10.25;4.72;;;;;;;;;;5096447;28;20096;-72
2023/10/11 03:16:11;;;;;;;5.45;4.43;;;;;;;;;;5091954;28;20346;-72
2023/10/11 03:18:39;;;;;;;8.52;4.60;;;;;;;;;;5095539;28;20355;-73
2023/10/11 03:21:19;;;;;;;9.20;4.63;;;;;;;;;;5085267;28;20035;-73
2023/10/11 03:23:44;;;;;;;;;;;;;;;;;;5094589;28;20039;-74
2023/10/11 03:26:31;;;;;;;7.00;5.10;;;;;;;;;;5092572;28;19912;-72
2023/10/11 03:28:58;;;;;;;9.38;6.90;;;;;;;;;;5095542;28;20402;-73
2023/10/11 03:31:23;;;;;;;11.70;6.50;;;;;;;;;;5095280;28;20041;-74
2023/10/11 03:33:49;;;;;;;9.95;6.07;;;;;;;;;;5094120;28;20047;-72
2023/10/11 03:36:27;;;;;;;8.00;6.57;;;;;;;;;;5094710;28;20438;-76
2023/10/11 03:38:53;;;;;;;10.15;5.40;;;;;;;;;;5087243;28;20074;-73
2023/10/11 03:41:24;;;;;;;7.53;5.40;;;;;;;;;;5095027;28;20046;-72
2023/10/11 03:43:54;;;;;;;8.45;4.93;;;;;;;;;;5092651;28;20034;-72
2023/10/11 03:46:22;;;;;;;8.23;5.20;;;;;;;;;;5094888;28;20035;-72
2023/10/11 03:48:56;;;;;;;6.95;5.20;;;;;;;;;;5091243;28;20032;-73
2023/10/11 03:51:22;;;;;;;9.30;5.47;;;;;;;;;;5095419;28;20032;-72
2023/10/11 03:53:48;;;;;;;10.80;5.10;;;;;;;;;;5097056;28;20109;-72
2023/10/11 03:56:14;;;;;;;12.30;5.28;;;;;;;;;;5095230;28;20020;-76
2023/10/11 03:58:39;;;;;;;21.10;10.27;;;;;;;;;;5095785;28;20074;-75
2023/10/11 04:01:23;;;;;;;15.27;10.00;;;;;;;;;;5082845;28;20036;-74
2023/10/11 04:03:49;;;;;;;12.15;8.45;;;;;;;;;;5092533;28;20416;-72
2023/10/11 04:06:15;;;;;;;12.30;7.13;;;;;;;;;;5086854;28;20036;-72
2023/10/11 04:08:47;;;;;;;9.65;5.40;;;;;;;;;;5085686;28;20020;-76
2023/10/11 04:11:19;;;;;;;10.57;5.45;;;;;;;;;;5080495;28;21218;-73
2023/10/11 04:13:49;;;;;;;10.07;5.13;;;;;;;;;;5084274;28;20043;-75
2023/10/11 04:16:17;;;;;;;6.13;5.32;;;;;;;;;;5086250;28;20028;-76
2023/10/11 04:18:43;;;;;;;7.83;5.23;;;;;;;;;;5086202;28;20023;-73
2023/10/11 04:21:25;;;;;;;7.45;5.28;;;;;;;;;;5086580;28;20020;-72
2023/10/11 04:23:57;;;;;;;8.68;5.40;;;;;;;;;;5101032;28;20030;-72
2023/10/11 04:26:53;;;;;;;8.43;4.68;;;;;;;;;;5098083;28;20063;-75
2023/10/11 04:29:17;;;;;;;8.43;4.88;;;;;;;;;;5096855;28;20039;-73
2023/10/11 04:34:32;;;;;;;7.97;4.90;;;;;;;;;;5099143;28;20154;-74
2023/10/11 04:36:59;;;;;;;8.88;5.40;;;;;;;;;;5100466;28;20023;-77
2023/10/11 04:39:28;;;;;;;10.02;5.07;;;;;;;;;;5097833;28;20032;-75
2023/10/11 04:41:59;;;;;;;7.95;4.63;;;;;;;;;;5086858;28;20030;-76
2023/10/11 04:44:35;;;;;;;7.05;4.80;;;;;;;;;;5096934;28;20031;-73
2023/10/11 04:47:00;;;;;;;9.90;4.95;;;;;;;;;;5089038;28;20028;-73
2023/10/11 04:49:30;;;;;;;12.80;5.43;;;;;;;;;;5096272;28;20038;-73
2023/10/11 04:51:56;;;;;;;9.52;5.95;;;;;;;;;;5085930;28;20016;-73
2023/10/11 04:54:36;;;;;;;11.77;6.00;;;;;;;;;;5094421;28;20063;-72
2023/10/11 04:57:06;;;;;;;12.02;5.75;;;;;;;;;;5097165;28;20878;-72
2023/10/11 05:02:08;;;;;;;15.60;7.20;;;;;;;;;;5086482;28;20035;-74
2023/10/11 05:04:34;;;;;;;10.95;7.32;;;;;;;;;;5094859;28;20024;-72
2023/10/11 05:07:07;;;;;;;17.25;8.88;;;;;;;;;;5094256;28;20046;-72
2023/10/11 05:09:39;;;;;;;13.30;7.82;;;;;;;;;;5088834;28;20031;-73
2023/10/11 05:12:09;;;;;;;13.57;7.82;;;;;;;;;;5095559;28;20162;-72
2023/10/11 05:19:45;;;;;;;11.68;6.22;;;;;;;;;;5082888;28;20023;-75
2023/10/11 05:22:29;;;;;;;9.48;6.22;;;;;;;;;;5084467;28;20027;-71
2023/10/11 05:27:38;;;;;;;14.05;6.18;;;;;;;;;;5098541;28;20118;-73
2023/10/11 05:30:06;;;;;;;9.05;5.53;;;;;;;;;;5095332;28;20024;-73
2023/10/11 05:32:32;;;;;;;10.50;5.45;;;;;;;;;;5093080;28;20015;-72
2023/10/11 05:51:32;;;;;;;9.63;4.93;;;;;;;;;;5065613;28;20909;-71
2023/10/11 05:53:59;;;;;;;11.30;5.10;;;;;;;;;;5064969;28;20031;-72
2023/10/11 05:56:25;;;;;;;5.80;5.20;;;;;;;;;;5060759;28;20102;-73
2023/10/11 05:58:52;;;;;;;9.90;5.18;;;;;;;;;;5048536;28;20036;-72
2023/10/11 06:01:23;;;;;;;8.13;5.38;;;;;;;;;;5044802;28;20468;-72
2023/10/11 06:03:52;;;;;;;8.95;4.80;;;;;;;;;;5070869;28;20043;-71
2023/10/11 06:06:38;;;;;;;11.80;4.82;;;;;;;;;;5073551;28;20173;-71
2023/10/11 06:09:05;;;;;;;6.88;5.47;;;;;;;;;;5059417;28;20036;-74
2023/10/11 06:11:36;;;;;;;15.02;6.60;;;;;;;;;;5069660;28;20098;-74
2023/10/11 06:14:12;;;;;;;11.63;6.07;;;;;;;;;;5075105;28;20043;-75
2023/10/11 06:16:38;;;;;;;11.23;6.20;;;;;;;;;;5075627;28;20132;-72
2023/10/11 06:19:18;;;;;;;17.90;9.07;;;;;;;;;;5092097;28;20552;-72
2023/10/11 06:21:56;;;;;;;26.35;13.90;;;;;;;;;;5095078;28;20453;-73
2023/10/11 06:24:22;;;;;;;18.15;12.60;;;;;;;;;;5088666;28;20117;-72
2023/10/11 06:29:17;;;;;;;15.63;10.05;;;;;;;;;;5096861;28;20043;-71
2023/10/11 06:31:45;;;;;;;15.20;10.55;;;;;;;;;;5095364;28;20027;-71
2023/10/11 06:34:15;;;;;;;17.38;9.43;;;;;;;;;;5093647;28;20071;-72
2023/10/11 06:36:49;;;;;;;16.38;7.43;;;;;;;;;;5097266;28;20020;-73
2023/10/11 06:40:13;;;;;;;14.23;7.40;;;;;;;;;;5095046;28;20138;-72
2023/10/11 06:42:12;;;;;;;12.15;7.18;;;;;;;;;;5092975;28;20053;-71
2023/10/11 06:44:38;;;;;;;11.90;7.60;;;;;;;;;;5097101;28;20067;-73
2023/10/11 06:47:04;;;;;;;16.77;8.05;;;;;;;;;;5095332;28;20822;-71
2023/10/11 06:49:40;;;;;;;12.50;6.88;;;;;;;;;;5095964;28;20036;-74
2023/10/11 06:52:06;;;;;;;9.73;6.00;;;;;;;;;;5095779;28;20051;-72
2023/10/11 06:54:32;;;;;;;9.93;5.75;;;;;;;;;;5095921;28;20103;-72
2023/10/11 06:56:57;;;;;;;13.15;5.53;;;;;;;;;;5095524;28;20024;-73
2023/10/11 06:59:23;;;;;;;12.43;5.03;;;;;;;;;;5094134;28;20348;-71
2023/10/11 07:01:48;;;;;;;11.13;5.50;;;;;;;;;;5094248;28;20580;-71
2023/10/11 07:04:18;;;;;;;8.18;5.65;;;;;;;;;;5097356;28;20020;-71
2023/10/11 07:06:43;;;;;;;;;;;;;;;;;;5099596;28;20027;-70
2023/10/11 07:09:19;;;;;;;6.40;4.53;;;;;;;;;;5095932;28;19916;-71
2023/10/11 07:12:28;;;;;;;10.07;4.75;;;;;;;;;;5096262;28;20289;-70
2023/10/11 07:14:35;;;;;;;7.68;4.70;;;;;;;;;;5093654;28;20024;-73
2023/10/11 07:17:01;;;;;;;8.13;4.15;;;;;;;;;;5095549;28;20019;-71
2023/10/11 07:19:26;;;;;;;11.15;4.25;;;;;;;;;;5097189;28;20031;-73
2023/10/11 07:21:54;;;;;;;7.43;3.58;;;;;;;;;;5094400;28;20748;-70
2023/10/11 07:24:19;;;;;;;9.13;4.03;;;;;;;;;;5097186;28;20050;-71
2023/10/11 07:29:14;;;;;;;10.35;7.40;;;;;;;;;;5096585;28;20035;-73
2023/10/11 07:31:48;;;;;;;14.90;6.70;;;;;;;;;;5095995;28;20638;-71
2023/10/11 07:34:17;;;;;;;14.07;6.20;;;;;;;;;;5095312;28;20101;-71
2023/10/11 07:36:43;;;;;;;11.27;6.47;;;;;;;;;;5091505;28;20106;-71
2023/10/11 07:41:51;;;;;;;6.63;4.53;;;;;;;;;;5071873;28;20051;-72
2023/10/11 07:44:20;;;;;;;8.80;4.38;;;;;;;;;;5075447;28;20726;-74
2023/10/11 07:46:46;;;;;;;10.75;4.50;;;;;;;;;;5075197;28;20080;-71
2023/10/11 07:49:16;;;;;;;9.18;4.47;;;;;;;;;;5074964;28;20036;-72
2023/10/11 07:51:42;;;;;;;;;;;;;;;;;;5072903;28;20028;-72
2023/10/11 07:54:16;;;;;;;9.25;4.00;;;;;;;;;;5083093;28;20291;-71
2023/10/11 07:56:43;;;;;;;7.55;4.00;;;;;;;;;;5073380;28;20499;-74
2023/10/11 07:59:08;;;;;;;8.18;4.90;;;;;;;;;;5076166;28;20059;-73
2023/10/11 08:01:43;;;;;;;7.55;4.45;;;;;;;;;;5079343;28;20146;-74
2023/10/11 08:04:09;;;;;;;17.23;10.07;;;;;;;;;;5077510;28;20443;-71
2023/10/11 08:06:39;;;;;;;9.23;4.82;;;;;;;;;;5074574;28;20016;-71
2023/10/11 08:09:06;;;;;;;9.30;4.55;;;;;;;;;;5074683;28;20051;-72
2023/10/11 08:11:45;;;;;;;7.20;4.32;;;;;;;;;;5083745;28;20035;-74
2023/10/11 08:14:17;;;;;;;7.15;4.55;;;;;;;;;;5094740;28;20031;-72
2023/10/11 08:16:43;;;;;;;16.15;12.82;;;;;;;;;;5093916;28;20118;-71
2023/10/11 08:19:08;;;;;;;10.20;5.72;;;;;;;;;;5074227;28;20404;-75
2023/10/11 08:21:33;;;;;;;7.65;4.00;;;;;;;;;;5076422;28;20457;-72
2023/10/11 08:23:59;;;;;;;9.60;4.30;;;;;;;;;;5076060;28;20097;-74
2023/10/11 08:26:24;;;;;;;7.30;3.95;;;;;;;;;;5077909;28;20046;-73
2023/10/11 08:28:51;;;;;;;11.88;3.75;;;;;;;;;;5078489;28;20020;-75
2023/10/11 08:33:54;;;;;;;6.95;3.50;;;;;;;;;;5074455;28;20135;-73
2023/10/11 08:36:20;;;;;;;11.32;3.53;;;;;;;;;;5072465;28;20114;-72
2023/10/11 08:38:45;;;;;;;9.18;3.83;;;;;;;;;;5074097;28;20347;-72
2023/10/11 08:41:15;;;;;;;10.98;4.15;;;;;;;;;;5071770;28;20066;-72
2023/10/11 08:43:41;;;;;;;7.07;3.33;;;;;;;;;;5072836;28;20063;-73
2023/10/11 08:46:09;;;;;;;9.23;2.83;;;;;;;;;;5077929;28;20039;-72
2023/10/11 08:48:38;;;;;;;5.75;3.55;;;;;;;;;;5077609;28;20023;-71
2023/10/11 08:51:12;;;;;;;8.02;3.45;;;;;;;;;;5079273;28;20439;-73
2023/10/11 08:53:47;;;;;;;7.35;4.20;;;;;;;;;;5081430;28;20351;-72
2023/10/11 08:56:17;;;;;;;9.48;3.85;;;;;;;;;;5073305;28;20103;-71
2023/10/11 08:58:42;;;;;;;6.00;3.88;;;;;;;;;;5073620;28;20024;-74
2023/10/11 09:01:14;;;;;;;9.40;3.92;;;;;;;;;;5080981;28;20106;-72
2023/10/11 09:03:40;;;;;;;5.00;3.70;;;;;;;;;;5095529;28;20704;-71
2023/10/11 09:06:05;;;;;;;7.28;3.53;;;;;;;;;;5080041;28;20442;-71
2023/10/11 09:08:32;;;;;;;11.50;4.13;;;;;;;;;;5076926;28;20327;-72
2023/10/11 09:11:11;;;;;;;7.20;3.13;;;;;;;;;;5075405;28;20042;-75
2023/10/11 09:13:36;;;;;;;7.03;3.80;;;;;;;;;;5076446;28;20023;-73
2023/10/11 09:16:08;;;;;;;9.93;3.55;;;;;;;;;;5074546;28;20340;-71
2023/10/11 09:18:34;;;;;;;6.03;3.15;;;;;;;;;;5077064;28;20039;-71
2023/10/11 09:21:08;;;;;;;7.15;3.67;;;;;;;;;;5078602;28;22671;-72
2023/10/11 09:23:37;;;;;;;5.85;2.92;;;;;;;;;;5072129;28;20047;-73
2023/10/11 09:26:05;;;;;;;3.42;3.13;;;;;;;;;;5077222;28;20024;-74
2023/10/11 09:28:33;;;;;;;8.23;3.40;;;;;;;;;;5078316;28;20115;-71
2023/10/11 09:31:10;;;;;;;8.15;3.78;;;;;;;;;;5076203;28;20032;-75
2023/10/11 09:33:38;;;;;;;5.30;3.13;;;;;;;;;;5073579;28;20042;-75
2023/10/11 09:36:07;;;;;;;16.67;6.70;;;;;;;;;;5074084;28;20036;-71
2023/10/11 09:38:39;;;;;;;;;;;;;;;;;;5075268;28;20028;-72
2023/10/11 09:41:07;;;;;;;7.25;4.07;;;;;;;;;;5095681;28;19926;-72
2023/10/11 09:43:44;;;;;;;9.85;3.58;;;;;;;;;;5097957;28;20042;-76
2023/10/11 09:46:13;;;;;;;7.00;4.60;;;;;;;;;;5077529;28;20061;-75
2023/10/11 09:48:41;;;;;;;8.95;4.63;;;;;;;;;;5077024;28;20024;-71
2023/10/11 09:51:13;;;;;;;6.97;4.75;;;;;;;;;;5087844;28;20047;-73
2023/10/11 09:53:41;;;;;;;6.60;3.40;;;;;;;;;;5080951;28;20051;-73
2023/10/11 09:56:35;;;;;;;5.53;3.38;;;;;;;;;;5071812;28;20117;-77
2023/10/11 09:59:22;;;;;;;7.25;3.88;;;;;;;;;;5092812;28;20060;-73
2023/10/11 10:02:03;;;;;;;5.93;3.47;;;;;;;;;;5100055;28;20032;-72
2023/10/11 10:04:49;;;;;;;7.43;3.78;;;;;;;;;;5098785;28;20024;-73
2023/10/11 10:07:21;;;;;;;6.00;3.75;;;;;;;;;;5094870;28;20055;-76
2023/10/11 10:09:52;;;;;;;4.93;3.20;;;;;;;;;;5078003;28;20157;-75
2023/10/11 10:12:21;;;;;;;4.43;3.40;;;;;;;;;;5095577;28;20038;-75
2023/10/11 10:14:50;;;;;;;6.18;3.38;;;;;;;;;;5096190;28;20891;-71
2023/10/11 10:17:16;;;;;;;;;;;;;;;;;;5082717;28;20434;-73
2023/10/11 10:19:45;;;;;;;5.72;3.58;;;;;;;;;;5078515;28;20330;-73
2023/10/11 10:22:31;;;;;;;5.65;3.35;;;;;;;;;;5073263;28;20093;-74
2023/10/11 10:25:16;;;;;;;8.80;3.30;;;;;;;;;;5082306;28;20023;-73
2023/10/11 10:27:45;;;;;;;5.03;3.58;;;;;;;;;;5080066;28;20126;-77
2023/10/11 10:30:16;;;;;;;5.22;2.72;;;;;;;;;;5079792;28;20053;-73
2023/10/11 10:33:00;;;;;;;6.60;3.20;;;;;;;;;;5081187;28;20031;-72
2023/10/11 10:35:27;;;;;;;5.90;3.33;;;;;;;;;;5080614;28;20055;-75
2023/10/11 10:37:56;;;;;;;5.13;3.13;;;;;;;;;;5081765;28;20039;-72
2023/10/11 10:40:27;;;;;;;;;;;;;;;;;;5080222;28;20023;-72
2023/10/11 10:43:08;;;;;;;5.35;2.78;;;;;;;;;;5079852;28;20260;-72
2023/10/11 10:45:35;;;;;;;7.43;2.78;;;;;;;;;;5079837;28;20051;-76
2023/10/11 10:48:14;;;;;;;9.30;3.38;;;;;;;;;;5077007;28;20098;-73
2023/10/11 10:51:07;;;;;;;9.23;3.30;;;;;;;;;;5079701;28;20023;-74
2023/10/11 10:53:39;;;;;;;6.03;3.00;;;;;;;;;;5073418;28;20043;-75
2023/10/11 10:56:04;;;;;;;9.40;3.20;;;;;;;;;;5082982;28;20451;-71
2023/10/11 10:58:30;;;;;;;5.65;3.40;;;;;;;;;;5087209;28;20063;-71
2023/10/11 11:00:59;;;;;;;5.38;3.13;;;;;;;;;;5080982;28;20092;-71
2023/10/11 11:03:24;;;;;;;;;;;;;;;;;;5095492;28;20032;-71
2023/10/11 11:05:55;;;;;;;7.50;4.20;;;;;;;;;;5087862;28;19912;-72
2023/10/11 11:08:24;;;;;;;6.60;4.32;;;;;;;;;;5087914;28;20047;-71
2023/10/11 11:10:57;;;;;;;5.45;3.90;;;;;;;;;;5094564;28;20043;-74
2023/10/11 11:13:23;;;;;;;10.50;3.97;;;;;;;;;;5096397;28;20075;-73
2023/10/11 11:15:55;;;;;;;4.75;2.80;;;;;;;;;;5093928;28;20048;-71
2023/10/11 11:18:31;;;;;;;6.93;3.20;;;;;;;;;;5095994;28;20038;-72
2023/10/11 11:20:59;;;;;;;8.55;2.70;;;;;;;;;;5097910;28;20118;-71
2023/10/11 11:23:27;;;;;;;5.47;2.75;;;;;;;;;;5095713;28;20035;-73
2023/10/11 11:25:53;;;;;;;4.28;2.53;;;;;;;;;;5092081;28;20031;-72
2023/10/11 11:28:20;;;;;;;5.85;2.92;;;;;;;;;;5097997;28;20020;-72
2023/10/11 11:30:51;;;;;;;8.85;2.95;;;;;;;;;;5096178;28;21106;-74
2023/10/11 11:33:21;;;;;;;8.20;3.00;;;;;;;;;;5092310;28;20601;-73
2023/10/11 11:35:55;;;;;;;6.38;2.80;;;;;;;;;;5095075;28;20149;-74
2023/10/11 11:38:23;;;;;;;4.60;2.45;;;;;;;;;;5095321;28;20024;-74
2023/10/11 11:40:51;;;;;;;4.60;2.20;;;;;;;;;;5094302;28;20032;-72
2023/10/11 11:43:17;;;;;;;5.53;2.60;;;;;;;;;;5096346;28;20034;-73
2023/10/11 11:45:44;;;;;;;8.55;2.50;;;;;;;;;;5094553;28;20115;-75
2023/10/11 11:48:09;;;;;;;6.18;3.13;;;;;;;;;;5096812;28;20458;-75
2023/10/11 11:50:34;;;;;;;7.30;2.95;;;;;;;;;;5095118;28;20132;-72
2023/10/11 11:53:00;;;;;;;6.22;2.20;;;;;;;;;;5097291;28;20110;-72
2023/10/11 11:55:26;;;;;;;12.55;2.83;;;;;;;;;;5095802;28;20051;-72
2023/10/11 11:57:52;;;;;;;7.22;2.50;;;;;;;;;;5096391;28;20504;-71
2023/10/11 12:02:49;;;;;;;5.72;2.90;;;;;;;;;;5096275;28;20046;-74
2023/10/11 12:05:14;;;;;;;6.50;3.17;;;;;;;;;;5093929;28;20023;-72
2023/10/11 12:07:40;;;;;;;5.38;2.67;;;;;;;;;;5093178;28;20111;-72
2023/10/11 12:10:10;;;;;;;8.75;2.50;;;;;;;;;;5096743;28;20485;-72
2023/10/11 12:12:36;;;;;;;5.38;2.60;;;;;;;;;;5096143;28;20138;-71
2023/10/11 12:15:03;;;;;;;3.28;2.20;;;;;;;;;;5096639;28;20178;-71
2023/10/11 12:17:28;;;;;;;8.15;2.33;;;;;;;;;;5093569;28;20107;-71
2023/10/11 12:19:54;;;;;;;4.43;2.60;;;;;;;;;;5096365;28;20106;-75
2023/10/11 12:22:22;;;;;;;6.43;2.60;;;;;;;;;;5094817;28;20032;-73
2023/10/11 12:24:47;;;;;;;5.45;2.42;;;;;;;;;;5095983;28;20032;-73
2023/10/11 12:27:13;;;;;;;5.32;2.42;;;;;;;;;;5097733;28;20020;-73
2023/10/11 12:29:38;;;;;;;5.20;2.33;;;;;;;;;;5094837;28;20037;-72
2023/10/11 12:32:04;;;;;;;4.25;2.50;;;;;;;;;;5096781;28;20035;-75
2023/10/11 12:34:31;;;;;;;3.60;2.47;;;;;;;;;;5096456;28;20059;-74
2023/10/11 12:36:57;;;;;;;5.28;2.17;;;;;;;;;;5095642;28;20111;-71
2023/10/11 12:39:24;;;;;;;6.00;2.55;;;;;;;;;;5097977;28;20490;-73
2023/10/11 12:41:51;;;;;;;7.57;2.95;;;;;;;;;;5099069;28;20035;-76
2023/10/11 12:44:16;;;;;;;6.07;2.63;;;;;;;;;;5101255;28;20097;-74
2023/10/11 12:46:42;;;;;;;4.45;2.38;;;;;;;;;;5098912;28;20028;-71
2023/10/11 12:49:13;;;;;;;9.32;2.42;;;;;;;;;;5099775;28;20022;-72
2023/10/11 12:51:47;;;;;;;6.57;2.30;;;;;;;;;;5099826;28;20090;-73
2023/10/11 12:54:13;;;;;;;6.70;3.05;;;;;;;;;;5097818;28;20069;-73
2023/10/11 12:56:39;;;;;;;6.82;2.58;;;;;;;;;;5097092;28;20367;-72
2023/10/11 12:59:12;;;;;;;5.15;2.70;;;;;;;;;;5100583;28;20034;-73
2023/10/11 13:01:40;;;;;;;3.92;2.53;;;;;;;;;;5090279;28;20118;-77
2023/10/11 13:04:10;;;;;;;6.45;2.40;;;;;;;;;;5094327;28;20097;-72
2023/10/11 13:06:39;;;;;;;4.63;2.42;;;;;;;;;;5099153;27;20047;-75
2023/10/11 13:09:14;;;;;;;4.05;2.65;;;;;;;;;;5094539;28;20104;-75
2023/10/11 13:11:44;;;;;;;7.32;2.78;;;;;;;;;;5085373;28;20024;-75
2023/10/11 13:14:10;;;;;;;10.48;2.90;;;;;;;;;;5082869;28;20402;-75
2023/10/11 13:16:38;;;;;;;5.07;2.65;;;;;;;;;;5086031;28;20027;-74
2023/10/11 13:19:03;;;;;;;5.85;2.58;;;;;;;;;;5085612;28;20055;-75
2023/10/11 13:21:33;;;;;;;5.50;2.42;;;;;;;;;;5086597;28;20066;-73
2023/10/11 13:23:59;;;;;;;8.20;2.30;;;;;;;;;;5093674;28;20593;-76
2023/10/11 13:26:24;;;;;;;7.00;2.72;;;;;;;;;;5097770;28;20084;-76
2023/10/11 13:28:53;;;;;;;4.40;2.80;;;;;;;;;;5096053;28;20043;-75
2023/10/11 13:31:18;;;;;;;5.95;2.90;;;;;;;;;;5087240;28;20106;-75
2023/10/11 13:33:44;;;;;;;6.53;2.88;;;;;;;;;;5098519;28;20449;-77
2023/10/11 13:36:12;;;;;;;7.15;2.55;;;;;;;;;;5096719;28;20032;-76
2023/10/11 13:38:41;;;;;;;3.53;2.13;;;;;;;;;;5097256;28;20024;-75
2023/10/11 13:41:06;;;;;;;;;;;;;;;;;;5100103;28;20036;-75
2023/10/11 13:43:31;;;;;;;5.80;2.30;;;;;;;;;;5099341;28;19916;-76
2023/10/11 13:46:01;;;;;;;3.60;2.60;;;;;;;;;;5099797;28;20119;-79
2023/10/11 13:48:33;;;;;;;7.38;3.00;;;;;;;;;;5098471;28;20386;-75
2023/10/11 13:51:03;;;;;;;7.03;3.00;;;;;;;;;;5092568;28;20032;-76
2023/10/11 13:53:28;;;;;;;6.53;2.85;;;;;;;;;;5069983;28;20024;-76
2023/10/11 13:55:54;;;;;;;7.78;2.60;;;;;;;;;;5074919;28;20347;-77
2023/10/11 13:58:19;;;;;;;4.28;3.08;;;;;;;;;;5075183;28;20043;-79
2023/10/11 14:05:43;;;;;;;7.45;2.00;;;;;;;;;;5078875;28;20039;-79
2023/10/11 14:08:30;;;;;;;4.68;2.25;;;;;;;;;;5094293;28;20451;-78
2023/10/11 14:10:56;;;;;;;6.10;2.75;;;;;;;;;;5093047;28;20512;-78
2023/10/11 14:13:25;;;;;;;4.07;2.30;;;;;;;;;;5095904;28;20023;-77
2023/10/11 14:15:51;;;;;;;10.18;2.65;;;;;;;;;;5090964;28;20032;-80
2023/10/11 14:18:19;;;;;;;5.13;2.63;;;;;;;;;;5097607;28;20453;-77
2023/10/11 14:20:49;;;;;;;4.00;2.58;;;;;;;;;;5095402;28;20011;-78
2023/10/11 14:23:15;;;;;;;5.57;2.72;;;;;;;;;;5097476;28;20020;-78
2023/10/11 14:25:41;;;;;;;3.17;2.17;;;;;;;;;;5070156;28;20458;-75
2023/10/11 14:28:06;;;;;;;5.68;2.58;;;;;;;;;;5072299;28;20058;-78
2023/10/11 14:30:32;;;;;;;4.82;2.60;;;;;;;;;;5068666;28;20101;-79
2023/10/11 14:32:58;;;;;;;4.55;2.08;;;;;;;;;;5072829;28;20118;-80
2023/10/11 14:35:26;;;;;;;4.88;3.38;;;;;;;;;;5065550;28;20056;-77
2023/10/11 14:37:51;;;;;;;4.07;2.60;;;;;;;;;;5069823;28;20035;-76
2023/10/11 14:40:17;;;;;;;6.72;2.58;;;;;;;;;;5071047;28;20020;-77
2023/10/11 14:42:43;;;;;;;3.60;2.33;;;;;;;;;;5072122;28;20039;-78
2023/10/11 14:45:12;;;;;;;7.13;2.10;;;;;;;;;;5067094;28;20035;-77
2023/10/11 14:47:38;;;;;;;3.03;2.28;;;;;;;;;;5063730;28;20027;-78
2023/10/11 14:50:03;;;;;;;8.18;2.22;;;;;;;;;;5068220;28;20064;-76
2023/10/11 14:52:30;;;;;;;7.10;2.10;;;;;;;;;;5070165;28;20126;-75
2023/10/11 14:54:55;;;;;;;6.13;2.20;;;;;;;;;;5069948;28;20339;-77
2023/10/11 14:57:21;;;;;;;5.20;2.40;;;;;;;;;;5071669;28;20535;-79
2023/10/11 14:59:47;;;;;;;5.00;2.20;;;;;;;;;;5070768;28;20209;-79
2023/10/11 15:02:12;;;;;;;9.02;2.83;;;;;;;;;;5068515;28;20510;-76
2023/10/11 15:04:37;;;;;;;6.53;2.28;;;;;;;;;;5069824;28;20058;-78
2023/10/11 15:07:06;;;;;;;7.63;2.65;;;;;;;;;;5068781;28;20027;-78
2023/10/11 15:09:33;;;;;;;6.22;2.90;;;;;;;;;;5068545;28;20431;-79
2023/10/11 15:11:58;;;;;;;5.30;2.90;;;;;;;;;;5072523;28;20467;-76
2023/10/11 15:14:24;;;;;;;6.05;3.03;;;;;;;;;;5069320;28;20062;-83
2023/10/11 15:16:49;;;;;;;5.18;3.10;;;;;;;;;;5073732;28;20020;-78
2023/10/11 15:19:14;;;;;;;9.48;2.90;;;;;;;;;;5070654;28;20034;-75
2023/10/11 15:21:40;;;;;;;5.95;2.78;;;;;;;;;;5067922;28;20073;-75
2023/10/11 15:24:07;;;;;;;8.15;4.10;;;;;;;;;;5071477;28;20107;-76
2023/10/11 15:26:36;;;;;;;7.38;3.33;;;;;;;;;;5069801;28;20483;-78
2023/10/11 15:29:02;;;;;;;7.32;4.70;;;;;;;;;;5069902;28;20107;-76
2023/10/11 15:31:32;;;;;;;5.38;3.55;;;;;;;;;;5070097;28;20036;-77
2023/10/11 15:33:58;;;;;;;7.25;3.20;;;;;;;;;;5066577;28;20040;-79
2023/10/11 15:36:24;;;;;;;4.40;2.88;;;;;;;;;;5074676;28;20019;-76
2023/10/11 15:38:49;;;;;;;5.50;2.80;;;;;;;;;;5074960;28;20051;-75
2023/10/11 15:41:16;;;;;;;7.97;3.72;;;;;;;;;;5069041;28;20479;-76
2023/10/11 15:43:41;;;;;;;8.85;3.50;;;;;;;;;;5080369;28;20035;-80